createdAt,value
2019-04-14T00:00:25.098Z,33.03
2019-04-14T00:02:57.790Z,36.03
2019-04-14T00:05:26.009Z,33.77
2019-04-14T00:07:54.209Z,31.17
2019-04-14T00:10:22.566Z,33.13
2019-04-14T00:12:51.432Z,34.33
2019-04-14T00:15:30.488Z,38.07
2019-04-14T00:17:50.434Z,33.83
2019-04-14T00:20:19.025Z,36.87
2019-04-14T00:22:47.605Z,34.17
2019-04-14T00:25:17.419Z,36.50
2019-04-14T00:27:45.690Z,34.57
2019-04-14T00:30:16.504Z,34.83
2019-04-14T00:32:46.588Z,37.30
2019-04-14T00:35:16.986Z,36.97
2019-04-14T00:38:04.908Z,37.27
2019-04-14T00:40:37.146Z,35.00
2019-04-14T00:43:19.968Z,33.10
2019-04-14T00:45:53.502Z,39.50
2019-04-14T00:48:22.575Z,39.27
2019-04-14T00:50:51.765Z,38.07
2019-04-14T00:53:20.777Z,38.33
2019-04-14T00:55:49.139Z,34.37
2019-04-14T00:58:17.336Z,34.17
2019-04-14T01:00:45.540Z,32.87
2019-04-14T01:03:13.730Z,31.43
2019-04-14T01:05:41.932Z,33.00
2019-04-14T01:08:10.115Z,34.27
2019-04-14T01:10:38.998Z,35.17
2019-04-14T01:13:10.754Z,35.73
2019-04-14T01:15:48.091Z,30.33
2019-04-14T01:18:07.916Z,32.23
2019-04-14T01:20:36.437Z,29.50
2019-04-14T01:23:04.765Z,30.53
2019-04-14T01:25:34.543Z,32.03
2019-04-14T01:28:03.175Z,30.93
2019-04-14T01:30:32.634Z,35.57
2019-04-14T01:33:01.134Z,32.00
2019-04-14T01:35:29.386Z,36.47
2019-04-14T01:37:57.567Z,31.77
2019-04-14T01:40:26.993Z,34.30
2019-04-14T01:42:55.313Z,32.43
2019-04-14T01:45:23.510Z,36.37
2019-04-14T01:47:51.709Z,28.67
2019-04-14T01:50:21.527Z,27.00
2019-04-14T01:52:54.452Z,28.87
2019-04-14T01:55:24.649Z,29.00
2019-04-14T01:58:12.313Z,30.73
2019-04-14T02:00:49.144Z,34.07
2019-04-14T02:03:17.618Z,31.07
2019-04-14T02:05:45.806Z,30.90
2019-04-14T02:08:14.002Z,30.97
2019-04-14T02:10:43.449Z,28.67
2019-04-14T02:13:11.749Z,33.23
2019-04-14T02:15:39.931Z,30.77
2019-04-14T02:18:08.131Z,31.70
2019-04-14T02:20:36.331Z,30.70
2019-04-14T02:23:05.994Z,31.57
2019-04-14T02:25:34.318Z,33.47
2019-04-14T02:28:02.851Z,34.80
2019-04-14T02:30:38.924Z,35.63
2019-04-14T02:33:37.765Z,27.00
2019-04-14T02:43:30.252Z,28.40
2019-04-14T02:45:59.688Z,31.13
2019-04-14T02:50:56.263Z,28.03
2019-04-14T02:53:36.665Z,30.13
2019-04-14T02:56:08.295Z,29.87
2019-04-14T02:58:50.004Z,29.23
2019-04-14T03:01:09.967Z,30.90
2019-04-14T03:05:59.324Z,28.83
2019-04-14T03:08:31.354Z,33.90
2019-04-14T03:10:53.577Z,30.30
2019-04-14T03:13:30.742Z,31.70
2019-04-14T03:16:04.088Z,27.87
2019-04-14T03:18:38.171Z,29.87
2019-04-14T03:21:13.424Z,29.50
2019-04-14T03:23:48.688Z,32.20
2019-04-14T03:26:18.473Z,30.17
2019-04-14T03:28:51.623Z,30.50
2019-04-14T03:39:00.548Z,29.87
2019-04-14T03:41:30.109Z,27.57
2019-04-14T03:43:46.329Z,29.67
2019-04-14T03:46:41.529Z,29.33
2019-04-14T03:51:34.056Z,26.67
2019-04-14T03:53:54.124Z,26.70
2019-04-14T03:56:07.128Z,30.17
2019-04-14T03:58:33.541Z,28.63
2019-04-14T04:01:02.475Z,28.83
2019-04-14T04:03:30.645Z,29.20
2019-04-14T04:05:59.086Z,29.40
2019-04-14T04:08:27.281Z,31.07
2019-04-14T04:10:57.586Z,32.47
2019-04-14T04:13:26.165Z,33.93
2019-04-14T04:15:56.234Z,33.90
2019-04-14T04:18:26.588Z,41.67
2019-04-14T04:20:59.138Z,35.53
2019-04-14T04:23:31.668Z,40.13
2019-04-14T04:26:14.670Z,40.90
2019-04-14T04:29:00.605Z,39.97
2019-04-14T04:31:39.618Z,46.83
2019-04-14T04:34:09.838Z,41.00
2019-04-14T04:36:55.312Z,47.63
2019-04-14T04:39:28.056Z,47.20
2019-04-14T04:41:56.319Z,47.53
2019-04-14T04:44:24.779Z,50.97
2019-04-14T04:46:53.071Z,49.47
2019-04-14T04:49:24.842Z,53.47
2019-04-14T04:51:52.941Z,53.90
2019-04-14T04:54:21.291Z,55.70
2019-04-14T04:56:49.467Z,53.57
2019-04-14T04:59:17.643Z,51.83
2019-04-14T05:01:45.844Z,59.03
2019-04-14T05:04:14.044Z,60.77
2019-04-14T05:07:01.328Z,59.27
2019-04-14T05:09:38.956Z,56.20
2019-04-14T05:12:18.018Z,58.90
2019-04-14T05:15:03.566Z,53.57
2019-04-14T05:17:34.355Z,49.00
2019-04-14T05:20:03.177Z,51.57
2019-04-14T05:22:31.578Z,62.10
2019-04-14T05:24:59.758Z,54.97
2019-04-14T05:27:28.284Z,55.37
2019-04-14T05:29:56.486Z,55.17
2019-04-14T05:32:24.670Z,54.50
2019-04-14T05:34:52.865Z,54.07
2019-04-14T05:37:21.060Z,52.73
2019-04-14T05:39:50.419Z,52.67
2019-04-14T05:42:22.049Z,50.13
2019-04-14T05:44:49.454Z,51.67
2019-04-14T05:47:17.806Z,53.37
2019-04-14T05:49:50.078Z,52.90
2019-04-14T05:52:16.379Z,48.50
2019-04-14T05:54:44.744Z,47.33
2019-04-14T05:57:13.392Z,46.27
2019-04-14T05:59:41.874Z,50.87
2019-04-14T06:02:11.463Z,52.67
2019-04-14T06:04:39.865Z,47.70
2019-04-14T06:07:08.356Z,46.77
2019-04-14T06:09:36.551Z,45.60
2019-04-14T06:12:04.746Z,44.90
2019-04-14T06:14:32.946Z,43.17
2019-04-14T06:17:01.768Z,46.77
2019-04-14T06:19:37.013Z,50.10
2019-04-14T06:22:00.159Z,44.50
2019-04-14T06:24:28.743Z,40.43
2019-04-14T06:26:57.222Z,42.93
2019-04-14T06:29:25.426Z,44.10
2019-04-14T06:31:58.186Z,40.47
2019-04-14T06:34:28.106Z,43.60
2019-04-14T06:36:58.218Z,39.90
2019-04-14T06:39:31.114Z,46.60
2019-04-14T06:41:59.570Z,39.77
2019-04-14T06:44:27.769Z,43.40
2019-04-14T06:46:55.952Z,40.40
2019-04-14T06:49:24.152Z,38.77
2019-04-14T06:51:52.576Z,39.07
2019-04-14T06:54:20.788Z,36.73
2019-04-14T06:56:49.341Z,38.63
2019-04-14T06:59:17.520Z,37.80
2019-04-14T07:01:45.727Z,38.40
2019-04-14T07:04:13.897Z,41.53
2019-04-14T07:06:42.097Z,40.23
2019-04-14T07:09:10.274Z,38.67
2019-04-14T07:11:38.775Z,36.37
2019-04-14T07:14:07.259Z,36.60
2019-04-14T07:16:35.737Z,33.10
2019-04-14T07:19:04.322Z,40.43
2019-04-14T07:21:32.522Z,33.53
2019-04-14T07:24:01.524Z,31.83
2019-04-14T07:26:29.806Z,31.07
2019-04-14T07:28:58.039Z,28.93
2019-04-14T07:31:46.378Z,33.47
2019-04-14T07:34:22.036Z,35.33
2019-04-14T07:36:57.874Z,33.50
2019-04-14T07:39:42.646Z,32.07
2019-04-14T07:42:18.911Z,29.07
2019-04-14T07:44:54.826Z,30.10
2019-04-14T07:47:25.395Z,32.77
2019-04-14T07:50:14.018Z,27.13
2019-04-14T07:52:44.577Z,28.40
2019-04-14T07:55:20.807Z,27.63
2019-04-14T07:57:50.972Z,27.60
2019-04-14T08:00:32.352Z,28.23
2019-04-14T08:03:14.342Z,27.63
2019-04-14T08:05:44.168Z,26.17
2019-04-14T08:08:12.350Z,24.80
2019-04-14T08:10:40.561Z,26.07
2019-04-14T08:13:08.736Z,25.87
2019-04-14T08:15:37.244Z,22.70
2019-04-14T08:18:05.450Z,24.23
2019-04-14T08:20:35.106Z,26.03
2019-04-14T08:23:03.298Z,24.13
2019-04-14T08:25:31.511Z,25.00
2019-04-14T08:27:59.725Z,22.93
2019-04-14T08:30:28.330Z,24.77
2019-04-14T08:32:56.817Z,26.10
2019-04-14T08:35:25.096Z,25.00
2019-04-14T08:37:53.294Z,25.17
2019-04-14T08:40:21.742Z,20.77
2019-04-14T08:42:51.863Z,22.03
2019-04-14T08:45:36.390Z,23.20
2019-04-14T08:48:15.430Z,25.03
2019-04-14T08:51:00.571Z,23.33
2019-04-14T08:53:42.915Z,22.87
2019-04-14T08:56:28.060Z,23.77
2019-04-14T08:59:00.451Z,22.60
2019-04-14T09:01:48.398Z,23.20
2019-04-14T09:04:21.690Z,22.33
2019-04-14T09:06:51.525Z,21.53
2019-04-14T09:09:30.378Z,23.93
2019-04-14T09:12:00.198Z,23.87
2019-04-14T09:14:28.399Z,21.90
2019-04-14T09:16:56.887Z,25.23
2019-04-14T09:19:25.374Z,23.30
2019-04-14T09:21:53.578Z,21.43
2019-04-14T09:24:21.769Z,22.00
2019-04-14T09:26:49.971Z,24.33
2019-04-14T09:29:18.221Z,23.00
2019-04-14T09:31:46.430Z,21.73
2019-04-14T09:34:14.608Z,20.63
2019-04-14T09:36:42.808Z,24.30
2019-04-14T09:39:11.001Z,21.77
2019-04-14T09:41:39.846Z,21.80
2019-04-14T09:44:08.322Z,22.23
2019-04-14T09:46:36.502Z,20.13
2019-04-14T09:49:04.979Z,19.47
2019-04-14T09:51:33.166Z,18.37
2019-04-14T09:54:02.040Z,17.10
2019-04-14T09:56:30.217Z,16.47
2019-04-14T09:58:58.689Z,16.37
2019-04-14T10:01:26.950Z,16.50
2019-04-14T10:03:55.449Z,18.10
2019-04-14T10:06:23.638Z,17.13
2019-04-14T10:08:51.918Z,16.20
2019-04-14T10:11:20.174Z,18.27
2019-04-14T10:13:48.362Z,15.37
2019-04-14T10:16:16.826Z,16.53
2019-04-14T10:18:45.306Z,16.20
2019-04-14T10:21:17.672Z,15.20
2019-04-14T10:23:43.695Z,15.17
2019-04-14T10:26:11.897Z,17.73
2019-04-14T10:28:40.106Z,15.97
2019-04-14T10:31:08.282Z,19.50
2019-04-14T10:33:36.803Z,15.00
2019-04-14T10:36:05.382Z,17.50
2019-04-14T10:38:33.868Z,19.63
2019-04-14T10:41:02.068Z,14.33
2019-04-14T10:43:30.242Z,18.07
2019-04-14T10:45:58.809Z,16.30
2019-04-14T10:48:26.988Z,14.97
2019-04-14T10:50:55.163Z,17.93
2019-04-14T10:53:23.371Z,14.83
2019-04-14T10:55:51.562Z,15.23
2019-04-14T10:58:19.762Z,14.50
2019-04-14T11:00:48.048Z,20.20
2019-04-14T11:03:16.232Z,16.60
2019-04-14T11:05:46.330Z,15.67
2019-04-14T11:08:14.932Z,15.77
2019-04-14T11:10:43.391Z,17.00
2019-04-14T11:13:11.866Z,15.87
2019-04-14T11:15:40.079Z,16.10
2019-04-14T11:18:08.278Z,18.57
2019-04-14T11:20:36.469Z,16.77
2019-04-14T11:23:04.979Z,15.97
2019-04-14T11:25:33.165Z,17.17
2019-04-14T11:28:01.782Z,16.07
2019-04-14T11:30:29.949Z,17.30
2019-04-14T11:33:08.705Z,14.13
2019-04-14T11:35:38.522Z,15.87
2019-04-14T11:38:11.285Z,17.67
2019-04-14T11:40:44.079Z,15.73
2019-04-14T11:43:12.264Z,19.97
2019-04-14T11:45:40.462Z,18.27
2019-04-14T11:48:08.925Z,19.67
2019-04-14T11:50:37.134Z,16.77
2019-04-14T11:53:05.574Z,17.27
2019-04-14T11:55:34.246Z,14.77
2019-04-14T11:58:02.743Z,15.47
2019-04-14T12:00:32.584Z,15.90
2019-04-14T12:03:18.568Z,14.50
2019-04-14T12:05:57.878Z,19.87
2019-04-14T12:08:33.701Z,16.30
2019-04-14T12:11:02.166Z,14.03
2019-04-14T12:13:30.339Z,13.67
2019-04-14T12:15:58.521Z,16.40
2019-04-14T12:18:26.723Z,14.90
2019-04-14T12:20:54.917Z,16.83
2019-04-14T12:23:23.379Z,13.40
2019-04-14T12:26:04.470Z,14.93
2019-04-14T12:28:21.969Z,12.93
2019-04-14T12:30:51.164Z,17.30
2019-04-14T12:33:19.762Z,15.57
2019-04-14T12:35:47.958Z,15.97
2019-04-14T12:38:16.218Z,14.80
2019-04-14T12:40:44.416Z,13.43
2019-04-14T12:43:14.498Z,15.07
2019-04-14T12:46:00.799Z,14.77
2019-04-14T12:48:30.667Z,14.50
2019-04-14T12:51:03.167Z,12.70
2019-04-14T12:53:31.667Z,13.00
2019-04-14T12:55:59.862Z,12.17
2019-04-14T12:58:29.702Z,12.73
2019-04-14T13:00:59.542Z,13.90
2019-04-14T13:03:27.722Z,13.17
2019-04-14T13:05:55.925Z,14.80
2019-04-14T13:08:24.398Z,12.60
2019-04-14T13:10:52.586Z,19.90
2019-04-14T13:13:20.777Z,17.60
2019-04-14T13:15:49.321Z,13.33
2019-04-14T13:18:17.498Z,15.60
2019-04-14T13:20:45.703Z,12.47
2019-04-14T13:23:13.881Z,12.87
2019-04-14T13:25:42.077Z,12.53
2019-04-14T13:28:10.267Z,12.60
2019-04-14T13:30:40.336Z,13.83
2019-04-14T13:33:08.512Z,13.30
2019-04-14T13:35:37.067Z,12.13
2019-04-14T13:38:05.639Z,11.87
2019-04-14T13:40:33.836Z,11.67
2019-04-14T13:43:03.217Z,12.50
2019-04-14T13:45:31.690Z,14.60
2019-04-14T13:48:00.174Z,14.37
2019-04-14T13:50:28.359Z,12.03
2019-04-14T13:52:56.548Z,13.53
2019-04-14T13:55:24.739Z,13.47
2019-04-14T13:57:52.921Z,12.97
2019-04-14T14:00:22.062Z,14.90
2019-04-14T14:02:50.242Z,12.77
2019-04-14T14:05:18.717Z,11.27
2019-04-14T14:07:46.914Z,12.27
2019-04-14T14:10:15.780Z,12.07
2019-04-14T14:12:48.522Z,11.37
2019-04-14T14:15:18.344Z,13.90
2019-04-14T14:17:54.042Z,12.20
2019-04-14T14:20:38.878Z,12.40
2019-04-14T14:23:09.003Z,13.07
2019-04-14T14:25:50.809Z,11.77
2019-04-14T14:28:18.998Z,10.80
2019-04-14T14:30:47.194Z,14.90
2019-04-14T14:33:15.397Z,12.53
2019-04-14T14:35:43.570Z,12.13
2019-04-14T14:38:11.767Z,10.97
2019-04-14T14:40:39.939Z,11.70
2019-04-14T14:43:08.135Z,12.80
2019-04-14T14:45:43.863Z,11.43
2019-04-14T14:48:13.702Z,12.23
2019-04-14T14:50:43.790Z,12.97
2019-04-14T14:53:12.622Z,13.90
2019-04-14T14:55:41.154Z,12.00
2019-04-14T14:58:09.362Z,14.70
2019-04-14T15:00:37.538Z,12.47
2019-04-14T15:03:05.783Z,11.37
2019-04-14T15:05:33.979Z,14.90
2019-04-14T15:08:02.430Z,12.70
2019-04-14T15:10:30.703Z,12.40
2019-04-14T15:12:58.891Z,11.73
2019-04-14T15:15:27.087Z,11.27
2019-04-14T15:17:55.531Z,12.40
2019-04-14T15:20:24.017Z,16.13
2019-04-14T15:22:52.410Z,11.93
2019-04-14T15:25:20.760Z,13.10
2019-04-14T15:27:48.961Z,13.47
2019-04-14T15:30:18.779Z,13.43
2019-04-14T15:32:47.049Z,14.83
2019-04-14T15:35:15.515Z,14.07
2019-04-14T15:37:43.711Z,15.70
2019-04-14T15:40:12.566Z,14.60
2019-04-14T15:42:41.046Z,13.97
2019-04-14T15:45:13.760Z,14.13
2019-04-14T15:47:40.980Z,14.43
2019-04-14T15:50:09.622Z,17.10
2019-04-14T15:52:37.802Z,13.00
2019-04-14T15:55:06.748Z,15.97
2019-04-14T15:57:39.506Z,13.53
2019-04-14T16:00:11.371Z,16.07
2019-04-14T16:02:43.886Z,12.53
2019-04-14T16:05:25.531Z,11.93
2019-04-14T16:08:04.425Z,12.50
2019-04-14T16:10:34.315Z,13.53
2019-04-14T16:13:20.779Z,11.83
2019-04-14T16:16:06.725Z,11.53
2019-04-14T16:18:45.560Z,12.43
2019-04-14T16:21:13.823Z,15.47
2019-04-14T16:23:50.386Z,17.00
2019-04-14T16:26:19.914Z,13.47
2019-04-14T16:28:49.755Z,15.40
2019-04-14T16:31:36.351Z,17.10
2019-04-14T16:34:22.313Z,13.73
2019-04-14T16:36:51.988Z,13.97
2019-04-14T16:39:20.165Z,15.10
2019-04-14T16:41:48.706Z,13.23
2019-04-14T16:44:16.882Z,15.47
2019-04-14T16:46:45.078Z,14.93
2019-04-14T16:49:13.258Z,15.10
2019-04-14T16:51:43.101Z,14.03
2019-04-14T16:54:29.432Z,14.80
2019-04-14T16:56:59.279Z,13.77
2019-04-14T16:59:27.458Z,14.33
2019-04-14T17:01:55.710Z,14.57
2019-04-14T17:04:23.921Z,13.60
2019-04-14T17:06:52.118Z,15.10
2019-04-14T17:09:20.303Z,16.77
2019-04-14T17:11:48.874Z,15.50
2019-04-14T17:14:21.641Z,14.23
2019-04-14T17:17:03.978Z,17.00
2019-04-14T17:19:50.433Z,17.83
2019-04-14T17:22:29.462Z,16.67
2019-04-14T17:25:05.417Z,14.43
2019-04-14T17:27:41.117Z,18.63
2019-04-14T17:30:12.180Z,13.50
2019-04-14T17:32:58.536Z,14.97
2019-04-14T17:35:28.360Z,17.10
2019-04-14T17:38:07.391Z,14.30
2019-04-14T17:40:43.042Z,15.70
2019-04-14T17:43:25.140Z,15.83
2019-04-14T17:46:01.029Z,15.43
2019-04-14T17:48:36.942Z,15.93
2019-04-14T17:51:13.111Z,17.23
2019-04-14T17:53:48.465Z,17.50
2019-04-14T17:56:21.346Z,17.27
2019-04-14T17:58:57.391Z,16.40
2019-04-14T18:01:33.155Z,13.60
2019-04-14T18:04:03.258Z,14.20
2019-04-14T18:06:36.049Z,13.43
2019-04-14T18:09:10.369Z,15.20
2019-04-14T18:11:40.178Z,15.47
2019-04-14T18:14:10.023Z,18.23
2019-04-14T18:16:42.555Z,19.73
2019-04-14T18:19:15.538Z,16.83
2019-04-14T18:21:44.381Z,16.57
2019-04-14T18:24:13.015Z,18.97
2019-04-14T18:26:41.263Z,16.33
2019-04-14T18:29:27.639Z,15.37
2019-04-14T18:31:57.464Z,13.83
2019-04-14T18:34:27.282Z,14.40
2019-04-14T18:36:57.434Z,14.93
2019-04-14T18:39:30.234Z,14.70
2019-04-14T18:42:18.144Z,14.87
2019-04-14T18:45:03.162Z,13.40
2019-04-14T18:47:38.697Z,14.63
2019-04-14T18:50:24.342Z,15.60
2019-04-14T18:53:09.514Z,16.37
2019-04-14T18:55:48.630Z,13.20
2019-04-14T18:58:18.450Z,13.53
2019-04-14T19:00:50.998Z,14.93
2019-04-14T19:03:19.194Z,14.23
2019-04-14T19:05:47.373Z,13.93
2019-04-14T19:08:15.959Z,20.10
2019-04-14T19:10:46.089Z,14.63
2019-04-14T19:13:24.808Z,16.50
2019-04-14T19:15:54.642Z,12.83
2019-04-14T19:18:25.820Z,14.93
2019-04-14T19:20:55.872Z,11.83
2019-04-14T19:23:24.055Z,14.33
2019-04-14T19:25:52.522Z,14.70
2019-04-14T19:28:20.698Z,16.20
2019-04-14T19:30:49.182Z,13.93
2019-04-14T19:33:17.374Z,15.23
2019-04-14T19:35:45.555Z,15.87
2019-04-14T19:38:13.726Z,16.33
2019-04-14T19:40:42.193Z,15.43
2019-04-14T19:43:22.921Z,13.60
2019-04-14T19:45:40.269Z,14.13
2019-04-14T19:48:08.455Z,13.77
2019-04-14T19:50:36.915Z,14.87
2019-04-14T19:53:05.099Z,16.73
2019-04-14T19:55:33.290Z,13.93
2019-04-14T19:58:01.743Z,13.43
2019-04-14T20:00:29.945Z,14.47
2019-04-14T20:02:58.120Z,22.80
2019-04-14T20:05:26.296Z,13.27
2019-04-14T20:07:54.482Z,14.40
2019-04-14T20:10:22.683Z,15.67
2019-04-14T20:12:51.190Z,15.47
2019-04-14T20:15:24.193Z,13.70
2019-04-14T20:17:54.027Z,15.93
2019-04-14T20:20:23.839Z,14.47
2019-04-14T20:23:00.009Z,12.60
2019-04-14T20:25:33.990Z,13.17
2019-04-14T20:28:01.730Z,14.03
2019-04-14T20:30:37.027Z,14.03
2019-04-14T20:33:05.211Z,10.77
2019-04-14T20:35:34.534Z,11.87
2019-04-14T20:38:03.036Z,11.63
2019-04-14T20:40:31.227Z,12.47
2019-04-14T20:42:59.679Z,13.43
2019-04-14T20:45:28.159Z,11.40
2019-04-14T20:47:56.748Z,14.20
2019-04-14T20:50:25.226Z,13.30
2019-04-14T20:52:53.703Z,13.87
2019-04-14T20:55:21.906Z,20.67
2019-04-14T20:57:50.355Z,17.50
2019-04-14T21:00:20.716Z,18.80
2019-04-14T21:02:56.633Z,15.27
2019-04-14T21:05:26.474Z,14.77
2019-04-14T21:07:56.284Z,13.27
2019-04-14T21:10:28.834Z,14.70
2019-04-14T21:13:01.441Z,14.27
2019-04-14T21:15:31.533Z,14.47
2019-04-14T21:18:01.673Z,13.10
2019-04-14T21:20:40.571Z,13.60
2019-04-14T21:23:10.402Z,13.90
2019-04-14T21:25:40.242Z,14.30
2019-04-14T21:28:10.050Z,12.53
2019-04-14T21:30:58.010Z,17.03
2019-04-14T21:33:28.296Z,14.60
2019-04-14T21:35:58.483Z,17.87
2019-04-14T21:38:40.054Z,15.30
2019-04-14T21:41:09.899Z,14.73
2019-04-14T21:43:38.079Z,15.47
2019-04-14T21:46:06.262Z,15.50
2019-04-14T21:48:34.458Z,16.43
2019-04-14T21:51:02.654Z,18.17
2019-04-14T21:53:30.826Z,15.67
2019-04-14T21:55:59.030Z,15.57
2019-04-14T21:58:34.695Z,15.97
2019-04-14T22:01:34.146Z,16.57
2019-04-14T22:04:03.988Z,13.83
2019-04-14T22:06:33.794Z,17.33
2019-04-14T22:09:01.990Z,15.50
2019-04-14T22:11:30.449Z,13.97
2019-04-14T22:13:58.934Z,14.23
2019-04-14T22:16:27.777Z,14.77
2019-04-14T22:18:55.965Z,15.30
2019-04-14T22:21:24.158Z,15.67
2019-04-14T22:24:01.193Z,16.23
2019-04-14T22:26:26.188Z,15.20
2019-04-14T22:28:52.191Z,14.67
2019-04-14T22:31:20.651Z,16.87
2019-04-14T22:33:49.134Z,14.93
2019-04-14T22:36:17.329Z,13.73
2019-04-14T22:38:45.522Z,15.40
2019-04-14T22:41:14.058Z,11.93
2019-04-14T22:43:42.278Z,12.87
2019-04-14T22:46:10.422Z,14.37
2019-04-14T22:48:39.535Z,13.73
2019-04-14T22:51:08.183Z,16.30
2019-04-14T22:53:36.383Z,14.43
2019-04-14T22:56:04.841Z,13.53
2019-04-14T22:58:33.013Z,14.50
2019-04-14T23:01:06.074Z,13.07
2019-04-14T23:03:35.959Z,12.87
2019-04-14T23:06:21.861Z,16.37
2019-04-14T23:08:54.615Z,14.30
2019-04-14T23:11:42.567Z,14.67
2019-04-14T23:14:14.847Z,13.87
2019-04-14T23:17:02.578Z,12.93
2019-04-14T23:19:35.111Z,12.47
2019-04-14T23:22:19.919Z,13.33
2019-04-14T23:24:48.807Z,13.60
2019-04-14T23:27:17.327Z,15.63
2019-04-14T23:29:45.533Z,14.97
2019-04-14T23:32:13.978Z,11.93
2019-04-14T23:34:42.183Z,12.67
2019-04-14T23:37:10.635Z,12.87
2019-04-14T23:39:39.111Z,14.30
2019-04-14T23:42:07.302Z,13.70
2019-04-14T23:44:35.491Z,15.07
2019-04-14T23:47:03.704Z,12.97
2019-04-14T23:49:31.910Z,13.50
2019-04-14T23:52:00.391Z,15.03
2019-04-14T23:54:28.866Z,15.73
2019-04-14T23:57:05.302Z,15.00
2019-04-14T23:59:27.062Z,14.23
